sensor_id;sensor_type;location;lat;lon;timestamp;temperature;humidity
63802;DHT22;49949;43.060;25.624;2023-04-25T00:01:24;12.20;99.90
63802;DHT22;49949;43.060;25.624;2023-04-25T00:03:50;12.20;99.90
63802;DHT22;49949;43.060;25.624;2023-04-25T00:06:16;12.20;99.90
63802;DHT22;49949;43.060;25.624;2023-04-25T00:08:43;12.20;99.90
63802;DHT22;49949;43.060;25.624;2023-04-25T00:11:09;12.20;99.90
63802;DHT22;49949;43.060;25.624;2023-04-25T00:13:34;12.10;99.90
63802;DHT22;49949;43.060;25.624;2023-04-25T00:16:00;12.00;99.90
63802;DHT22;49949;43.060;25.624;2023-04-25T00:18:28;12.10;99.90
63802;DHT22;49949;43.060;25.624;2023-04-25T00:20:55;12.10;99.90
63802;DHT22;49949;43.060;25.624;2023-04-25T00:23:21;12.10;99.90
63802;DHT22;49949;43.060;25.624;2023-04-25T00:25:49;12.10;99.90
63802;DHT22;49949;43.060;25.624;2023-04-25T00:28:15;12.10;99.90
63802;DHT22;49949;43.060;25.624;2023-04-25T00:30:42;12.00;99.90
63802;DHT22;49949;43.060;25.624;2023-04-25T00:33:09;12.00;99.90
63802;DHT22;49949;43.060;25.624;2023-04-25T00:35:35;12.00;99.90
63802;DHT22;49949;43.060;25.624;2023-04-25T00:38:01;12.00;99.90
63802;DHT22;49949;43.060;25.624;2023-04-25T00:40:27;12.00;99.90
63802;DHT22;49949;43.060;25.624;2023-04-25T00:42:54;12.00;99.90
63802;DHT22;49949;43.060;25.624;2023-04-25T00:45:20;12.00;99.90
63802;DHT22;49949;43.060;25.624;2023-04-25T00:47:46;12.00;99.90
63802;DHT22;49949;43.060;25.624;2023-04-25T00:50:13;12.00;99.90
63802;DHT22;49949;43.060;25.624;2023-04-25T00:52:43;12.10;99.90
63802;DHT22;49949;43.060;25.624;2023-04-25T00:55:10;12.10;99.90
63802;DHT22;49949;43.060;25.624;2023-04-25T00:57:37;12.00;99.90
63802;DHT22;49949;43.060;25.624;2023-04-25T01:00:05;12.00;99.90
63802;DHT22;49949;43.060;25.624;2023-04-25T01:02:35;11.90;99.90
63802;DHT22;49949;43.060;25.624;2023-04-25T01:05:01;11.90;99.90
63802;DHT22;49949;43.060;25.624;2023-04-25T01:07:27;11.90;99.90
63802;DHT22;49949;43.060;25.624;2023-04-25T01:09:53;11.80;99.90
63802;DHT22;49949;43.060;25.624;2023-04-25T01:12:18;11.90;99.90
63802;DHT22;49949;43.060;25.624;2023-04-25T01:14:44;11.80;99.90
63802;DHT22;49949;43.060;25.624;2023-04-25T01:17:11;11.70;99.90
63802;DHT22;49949;43.060;25.624;2023-04-25T01:19:37;11.70;99.90
63802;DHT22;49949;43.060;25.624;2023-04-25T01:22:03;11.70;99.90
63802;DHT22;49949;43.060;25.624;2023-04-25T01:24:32;11.70;99.90
63802;DHT22;49949;43.060;25.624;2023-04-25T01:26:59;11.80;99.90
63802;DHT22;49949;43.060;25.624;2023-04-25T01:29:26;11.80;99.90
63802;DHT22;49949;43.060;25.624;2023-04-25T01:31:53;11.80;99.90
63802;DHT22;49949;43.060;25.624;2023-04-25T01:34:18;11.70;99.90
63802;DHT22;49949;43.060;25.624;2023-04-25T01:36:45;11.70;99.90
63802;DHT22;49949;43.060;25.624;2023-04-25T01:39:11;11.70;99.90
63802;DHT22;49949;43.060;25.624;2023-04-25T01:41:37;11.70;99.90
63802;DHT22;49949;43.060;25.624;2023-04-25T01:44:03;11.70;99.90
63802;DHT22;49949;43.060;25.624;2023-04-25T01:46:29;11.70;99.90
63802;DHT22;49949;43.060;25.624;2023-04-25T01:48:56;11.70;99.90
63802;DHT22;49949;43.060;25.624;2023-04-25T01:51:21;11.70;99.90
63802;DHT22;49949;43.060;25.624;2023-04-25T01:53:47;11.70;99.90
63802;DHT22;49949;43.060;25.624;2023-04-25T01:56:13;11.70;99.90
63802;DHT22;49949;43.060;25.624;2023-04-25T01:58:38;11.70;99.90
63802;DHT22;49949;43.060;25.624;2023-04-25T02:01:04;11.70;99.90
63802;DHT22;49949;43.060;25.624;2023-04-25T02:03:31;11.70;99.90
63802;DHT22;49949;43.060;25.624;2023-04-25T02:05:57;11.60;99.90
63802;DHT22;49949;43.060;25.624;2023-04-25T02:08:23;11.60;99.90
63802;DHT22;49949;43.060;25.624;2023-04-25T02:10:51;11.60;99.90
63802;DHT22;49949;43.060;25.624;2023-04-25T02:13:17;11.60;99.90
63802;DHT22;49949;43.060;25.624;2023-04-25T02:15:42;11.60;99.90
63802;DHT22;49949;43.060;25.624;2023-04-25T02:18:08;11.60;99.90
63802;DHT22;49949;43.060;25.624;2023-04-25T02:20:36;11.60;99.90
63802;DHT22;49949;43.060;25.624;2023-04-25T02:23:02;11.60;99.90
63802;DHT22;49949;43.060;25.624;2023-04-25T02:25:28;11.60;99.90
63802;DHT22;49949;43.060;25.624;2023-04-25T02:27:54;11.60;99.90
63802;DHT22;49949;43.060;25.624;2023-04-25T02:30:20;11.50;99.90
63802;DHT22;49949;43.060;25.624;2023-04-25T02:32:46;11.60;99.90
63802;DHT22;49949;43.060;25.624;2023-04-25T02:35:12;11.60;99.90
63802;DHT22;49949;43.060;25.624;2023-04-25T02:37:39;11.60;99.90
63802;DHT22;49949;43.060;25.624;2023-04-25T02:40:05;11.60;99.90
63802;DHT22;49949;43.060;25.624;2023-04-25T02:42:32;11.60;99.90
63802;DHT22;49949;43.060;25.624;2023-04-25T02:44:58;11.60;99.90
63802;DHT22;49949;43.060;25.624;2023-04-25T02:47:24;11.70;99.90
63802;DHT22;49949;43.060;25.624;2023-04-25T02:49:49;11.60;99.90
63802;DHT22;49949;43.060;25.624;2023-04-25T02:52:15;11.60;99.90
63802;DHT22;49949;43.060;25.624;2023-04-25T02:54:41;11.60;99.90
63802;DHT22;49949;43.060;25.624;2023-04-25T02:57:07;11.60;99.90
63802;DHT22;49949;43.060;25.624;2023-04-25T02:59:33;11.50;99.90
63802;DHT22;49949;43.060;25.624;2023-04-25T03:01:59;11.50;99.90
63802;DHT22;49949;43.060;25.624;2023-04-25T03:04:24;11.50;99.90
63802;DHT22;49949;43.060;25.624;2023-04-25T03:06:51;11.60;99.90
63802;DHT22;49949;43.060;25.624;2023-04-25T03:09:17;11.50;99.90
63802;DHT22;49949;43.060;25.624;2023-04-25T03:11:44;11.50;99.90
63802;DHT22;49949;43.060;25.624;2023-04-25T03:14:10;11.50;99.90
63802;DHT22;49949;43.060;25.624;2023-04-25T03:16:35;11.50;99.90
63802;DHT22;49949;43.060;25.624;2023-04-25T03:19:02;11.40;99.90
63802;DHT22;49949;43.060;25.624;2023-04-25T03:21:28;11.40;99.90
63802;DHT22;49949;43.060;25.624;2023-04-25T03:23:54;11.40;99.90
63802;DHT22;49949;43.060;25.624;2023-04-25T03:26:20;11.40;99.90
63802;DHT22;49949;43.060;25.624;2023-04-25T03:28:46;11.30;99.90
63802;DHT22;49949;43.060;25.624;2023-04-25T03:31:11;11.40;99.90
63802;DHT22;49949;43.060;25.624;2023-04-25T03:33:37;11.40;99.90
63802;DHT22;49949;43.060;25.624;2023-04-25T03:36:03;11.40;99.90
63802;DHT22;49949;43.060;25.624;2023-04-25T03:38:29;11.30;99.90
63802;DHT22;49949;43.060;25.624;2023-04-25T03:40:54;11.30;99.90
63802;DHT22;49949;43.060;25.624;2023-04-25T03:43:21;11.30;99.90
63802;DHT22;49949;43.060;25.624;2023-04-25T03:45:47;11.30;99.90
63802;DHT22;49949;43.060;25.624;2023-04-25T03:48:13;11.30;99.90
63802;DHT22;49949;43.060;25.624;2023-04-25T03:50:38;11.40;99.90
63802;DHT22;49949;43.060;25.624;2023-04-25T03:53:04;11.40;99.90
63802;DHT22;49949;43.060;25.624;2023-04-25T03:55:30;11.40;99.90
63802;DHT22;49949;43.060;25.624;2023-04-25T03:57:57;11.40;99.90
63802;DHT22;49949;43.060;25.624;2023-04-25T04:00:24;11.50;99.90
63802;DHT22;49949;43.060;25.624;2023-04-25T04:02:49;11.40;99.90
63802;DHT22;49949;43.060;25.624;2023-04-25T04:05:15;11.50;99.90
63802;DHT22;49949;43.060;25.624;2023-04-25T04:07:41;11.40;99.90
63802;DHT22;49949;43.060;25.624;2023-04-25T04:10:11;11.50;99.90
63802;DHT22;49949;43.060;25.624;2023-04-25T04:12:37;11.50;99.90
63802;DHT22;49949;43.060;25.624;2023-04-25T04:15:04;11.50;99.90
63802;DHT22;49949;43.060;25.624;2023-04-25T04:17:31;11.50;99.90
63802;DHT22;49949;43.060;25.624;2023-04-25T04:19:57;11.50;99.90
63802;DHT22;49949;43.060;25.624;2023-04-25T04:22:24;11.60;99.90
63802;DHT22;49949;43.060;25.624;2023-04-25T04:24:50;11.60;99.90
63802;DHT22;49949;43.060;25.624;2023-04-25T04:27:19;11.60;99.90
63802;DHT22;49949;43.060;25.624;2023-04-25T04:29:45;11.50;99.90
63802;DHT22;49949;43.060;25.624;2023-04-25T04:32:12;11.50;99.90
63802;DHT22;49949;43.060;25.624;2023-04-25T04:34:38;11.60;99.90
63802;DHT22;49949;43.060;25.624;2023-04-25T04:37:05;11.60;99.90
63802;DHT22;49949;43.060;25.624;2023-04-25T04:39:32;11.70;99.90
63802;DHT22;49949;43.060;25.624;2023-04-25T04:41:58;11.70;99.90
63802;DHT22;49949;43.060;25.624;2023-04-25T04:44:24;11.70;99.90
63802;DHT22;49949;43.060;25.624;2023-04-25T04:46:50;11.80;99.90
63802;DHT22;49949;43.060;25.624;2023-04-25T04:49:16;11.80;99.90
63802;DHT22;49949;43.060;25.624;2023-04-25T04:51:43;11.90;99.90
63802;DHT22;49949;43.060;25.624;2023-04-25T04:54:12;11.90;99.90
63802;DHT22;49949;43.060;25.624;2023-04-25T04:56:38;12.00;99.90
63802;DHT22;49949;43.060;25.624;2023-04-25T04:59:03;12.00;99.90
63802;DHT22;49949;43.060;25.624;2023-04-25T05:01:29;12.00;99.90
63802;DHT22;49949;43.060;25.624;2023-04-25T05:03:56;12.00;99.90
63802;DHT22;49949;43.060;25.624;2023-04-25T05:06:29;12.10;99.90
63802;DHT22;49949;43.060;25.624;2023-04-25T05:08:55;12.10;99.90
63802;DHT22;49949;43.060;25.624;2023-04-25T05:11:22;12.20;99.90
63802;DHT22;49949;43.060;25.624;2023-04-25T05:13:49;12.30;99.90
63802;DHT22;49949;43.060;25.624;2023-04-25T05:16:14;12.30;99.90
63802;DHT22;49949;43.060;25.624;2023-04-25T05:18:42;12.40;99.90
63802;DHT22;49949;43.060;25.624;2023-04-25T05:21:07;12.50;99.90
63802;DHT22;49949;43.060;25.624;2023-04-25T05:23:33;12.60;99.90
63802;DHT22;49949;43.060;25.624;2023-04-25T05:25:59;12.60;99.90
63802;DHT22;49949;43.060;25.624;2023-04-25T05:28:25;12.70;99.90
63802;DHT22;49949;43.060;25.624;2023-04-25T05:30:51;12.80;99.90
63802;DHT22;49949;43.060;25.624;2023-04-25T05:33:17;12.80;99.90
63802;DHT22;49949;43.060;25.624;2023-04-25T05:35:42;13.00;99.90
63802;DHT22;49949;43.060;25.624;2023-04-25T05:38:08;13.00;99.90
63802;DHT22;49949;43.060;25.624;2023-04-25T05:40:34;13.20;99.90
63802;DHT22;49949;43.060;25.624;2023-04-25T05:43:00;13.30;99.90
63802;DHT22;49949;43.060;25.624;2023-04-25T05:45:26;13.40;99.90
63802;DHT22;49949;43.060;25.624;2023-04-25T05:47:51;13.40;99.90
63802;DHT22;49949;43.060;25.624;2023-04-25T05:50:17;13.50;99.90
63802;DHT22;49949;43.060;25.624;2023-04-25T05:52:43;13.60;99.90
63802;DHT22;49949;43.060;25.624;2023-04-25T05:55:09;13.80;99.90
63802;DHT22;49949;43.060;25.624;2023-04-25T05:57:34;14.30;99.90
63802;DHT22;49949;43.060;25.624;2023-04-25T06:00:00;14.70;99.90
63802;DHT22;49949;43.060;25.624;2023-04-25T06:02:26;14.90;99.90
63802;DHT22;49949;43.060;25.624;2023-04-25T06:04:52;15.10;99.90
63802;DHT22;49949;43.060;25.624;2023-04-25T06:07:19;15.50;99.90
63802;DHT22;49949;43.060;25.624;2023-04-25T06:09:45;15.60;99.90
63802;DHT22;49949;43.060;25.624;2023-04-25T06:12:11;15.70;99.90
63802;DHT22;49949;43.060;25.624;2023-04-25T06:14:36;16.00;99.90
63802;DHT22;49949;43.060;25.624;2023-04-25T06:17:03;16.30;99.90
63802;DHT22;49949;43.060;25.624;2023-04-25T06:19:34;16.10;99.90
63802;DHT22;49949;43.060;25.624;2023-04-25T06:22:00;16.10;99.90
63802;DHT22;49949;43.060;25.624;2023-04-25T06:24:26;15.90;99.90
63802;DHT22;49949;43.060;25.624;2023-04-25T06:26:52;15.70;99.90
63802;DHT22;49949;43.060;25.624;2023-04-25T06:29:18;15.60;99.90
63802;DHT22;49949;43.060;25.624;2023-04-25T06:31:44;15.50;99.90
63802;DHT22;49949;43.060;25.624;2023-04-25T06:34:09;15.40;99.90
63802;DHT22;49949;43.060;25.624;2023-04-25T06:36:35;15.50;99.90
63802;DHT22;49949;43.060;25.624;2023-04-25T06:39:01;15.50;99.90
63802;DHT22;49949;43.060;25.624;2023-04-25T06:41:26;15.60;99.90
63802;DHT22;49949;43.060;25.624;2023-04-25T06:43:52;15.80;99.90
63802;DHT22;49949;43.060;25.624;2023-04-25T06:46:18;16.10;99.90
63802;DHT22;49949;43.060;25.624;2023-04-25T06:48:44;16.10;99.90
63802;DHT22;49949;43.060;25.624;2023-04-25T06:51:09;16.20;99.90
63802;DHT22;49949;43.060;25.624;2023-04-25T06:53:35;16.30;99.90
63802;DHT22;49949;43.060;25.624;2023-04-25T06:56:01;16.40;99.90
63802;DHT22;49949;43.060;25.624;2023-04-25T06:58:28;16.50;99.90
63802;DHT22;49949;43.060;25.624;2023-04-25T07:00:54;16.60;99.90
63802;DHT22;49949;43.060;25.624;2023-04-25T07:03:19;16.60;99.90
63802;DHT22;49949;43.060;25.624;2023-04-25T07:05:46;16.70;99.90
63802;DHT22;49949;43.060;25.624;2023-04-25T07:08:11;16.70;99.90
63802;DHT22;49949;43.060;25.624;2023-04-25T07:10:37;16.80;99.90
63802;DHT22;49949;43.060;25.624;2023-04-25T07:13:03;17.00;99.90
63802;DHT22;49949;43.060;25.624;2023-04-25T07:15:28;17.10;99.90
63802;DHT22;49949;43.060;25.624;2023-04-25T07:17:54;17.20;99.90
63802;DHT22;49949;43.060;25.624;2023-04-25T07:20:20;17.30;99.90
63802;DHT22;49949;43.060;25.624;2023-04-25T07:22:46;17.40;99.90
63802;DHT22;49949;43.060;25.624;2023-04-25T07:25:12;17.40;99.90
63802;DHT22;49949;43.060;25.624;2023-04-25T07:27:37;17.60;99.90
63802;DHT22;49949;43.060;25.624;2023-04-25T07:30:04;17.70;99.90
63802;DHT22;49949;43.060;25.624;2023-04-25T07:32:30;17.90;99.90
63802;DHT22;49949;43.060;25.624;2023-04-25T07:34:55;18.00;99.90
63802;DHT22;49949;43.060;25.624;2023-04-25T07:37:21;18.30;99.90
63802;DHT22;49949;43.060;25.624;2023-04-25T07:39:47;18.40;99.90
63802;DHT22;49949;43.060;25.624;2023-04-25T07:42:13;18.50;99.90
63802;DHT22;49949;43.060;25.624;2023-04-25T07:44:39;18.70;99.90
63802;DHT22;49949;43.060;25.624;2023-04-25T07:47:09;18.90;99.90
63802;DHT22;49949;43.060;25.624;2023-04-25T07:49:38;19.20;99.90
63802;DHT22;49949;43.060;25.624;2023-04-25T07:52:04;19.50;99.90
63802;DHT22;49949;43.060;25.624;2023-04-25T07:54:31;19.90;99.90
63802;DHT22;49949;43.060;25.624;2023-04-25T07:56:58;20.30;99.90
63802;DHT22;49949;43.060;25.624;2023-04-25T07:59:24;20.30;99.90
63802;DHT22;49949;43.060;25.624;2023-04-25T08:01:50;20.40;99.90
63802;DHT22;49949;43.060;25.624;2023-04-25T08:04:16;20.80;99.90
63802;DHT22;49949;43.060;25.624;2023-04-25T08:06:42;21.00;99.90
63802;DHT22;49949;43.060;25.624;2023-04-25T08:09:08;21.10;99.90
63802;DHT22;49949;43.060;25.624;2023-04-25T08:11:35;20.70;99.90
63802;DHT22;49949;43.060;25.624;2023-04-25T08:14:01;20.40;99.90
63802;DHT22;49949;43.060;25.624;2023-04-25T08:16:27;20.40;99.90
63802;DHT22;49949;43.060;25.624;2023-04-25T08:18:53;20.50;99.90
63802;DHT22;49949;43.060;25.624;2023-04-25T08:21:18;20.90;99.90
63802;DHT22;49949;43.060;25.624;2023-04-25T08:23:44;21.30;99.90
63802;DHT22;49949;43.060;25.624;2023-04-25T08:26:10;21.60;99.90
63802;DHT22;49949;43.060;25.624;2023-04-25T08:28:36;21.60;95.90
63802;DHT22;49949;43.060;25.624;2023-04-25T08:31:02;21.60;94.10
63802;DHT22;49949;43.060;25.624;2023-04-25T08:33:27;21.40;95.10
63802;DHT22;49949;43.060;25.624;2023-04-25T08:35:54;21.00;95.90
63802;DHT22;49949;43.060;25.624;2023-04-25T08:38:20;20.80;96.30
63802;DHT22;49949;43.060;25.624;2023-04-25T08:40:49;21.10;95.90
63802;DHT22;49949;43.060;25.624;2023-04-25T08:43:18;21.20;96.50
63802;DHT22;49949;43.060;25.624;2023-04-25T08:45:44;21.20;90.80
63802;DHT22;49949;43.060;25.624;2023-04-25T08:48:13;21.00;95.40
63802;DHT22;49949;43.060;25.624;2023-04-25T08:50:49;20.80;94.80
63802;DHT22;49949;43.060;25.624;2023-04-25T08:53:17;21.20;95.50
63802;DHT22;49949;43.060;25.624;2023-04-25T08:55:47;22.00;95.00
63802;DHT22;49949;43.060;25.624;2023-04-25T08:58:13;22.50;91.30
63802;DHT22;49949;43.060;25.624;2023-04-25T09:00:39;22.60;89.10
63802;DHT22;49949;43.060;25.624;2023-04-25T09:03:05;22.20;89.40
63802;DHT22;49949;43.060;25.624;2023-04-25T09:05:34;21.90;88.00
63802;DHT22;49949;43.060;25.624;2023-04-25T09:08:01;21.50;89.60
63802;DHT22;49949;43.060;25.624;2023-04-25T09:10:27;21.30;92.20
63802;DHT22;49949;43.060;25.624;2023-04-25T09:13:04;21.20;89.90
63802;DHT22;49949;43.060;25.624;2023-04-25T09:15:31;21.20;90.60
63802;DHT22;49949;43.060;25.624;2023-04-25T09:17:57;21.30;89.60
63802;DHT22;49949;43.060;25.624;2023-04-25T09:20:23;21.50;93.00
63802;DHT22;49949;43.060;25.624;2023-04-25T09:23:01;21.70;90.60
63802;DHT22;49949;43.060;25.624;2023-04-25T09:25:34;22.00;93.50
63802;DHT22;49949;43.060;25.624;2023-04-25T09:28:04;22.40;90.40
63802;DHT22;49949;43.060;25.624;2023-04-25T09:30:31;22.70;91.30
63802;DHT22;49949;43.060;25.624;2023-04-25T09:33:03;23.00;89.40
63802;DHT22;49949;43.060;25.624;2023-04-25T09:35:29;23.30;85.30
63802;DHT22;49949;43.060;25.624;2023-04-25T09:37:55;23.20;87.40
63802;DHT22;49949;43.060;25.624;2023-04-25T09:40:21;22.70;82.50
63802;DHT22;49949;43.060;25.624;2023-04-25T09:42:47;22.40;85.80
63802;DHT22;49949;43.060;25.624;2023-04-25T09:45:13;22.10;84.40
63802;DHT22;49949;43.060;25.624;2023-04-25T09:47:41;21.80;84.30
63802;DHT22;49949;43.060;25.624;2023-04-25T09:50:16;21.70;86.70
63802;DHT22;49949;43.060;25.624;2023-04-25T09:52:43;21.40;83.40
63802;DHT22;49949;43.060;25.624;2023-04-25T09:55:09;21.00;87.60
63802;DHT22;49949;43.060;25.624;2023-04-25T09:57:35;20.20;91.90
63802;DHT22;49949;43.060;25.624;2023-04-25T10:00:05;19.20;94.80
63802;DHT22;49949;43.060;25.624;2023-04-25T10:02:35;18.60;99.90
63802;DHT22;49949;43.060;25.624;2023-04-25T10:05:06;17.60;99.90
63802;DHT22;49949;43.060;25.624;2023-04-25T10:07:34;16.40;99.90
63802;DHT22;49949;43.060;25.624;2023-04-25T10:10:04;15.00;99.90
63802;DHT22;49949;43.060;25.624;2023-04-25T10:12:32;14.50;99.90
63802;DHT22;49949;43.060;25.624;2023-04-25T10:14:59;14.00;99.90
63802;DHT22;49949;43.060;25.624;2023-04-25T10:17:26;13.70;99.90
63802;DHT22;49949;43.060;25.624;2023-04-25T10:19:54;13.50;99.90
63802;DHT22;49949;43.060;25.624;2023-04-25T10:22:31;13.40;99.90
63802;DHT22;49949;43.060;25.624;2023-04-25T10:24:58;13.30;99.90
63802;DHT22;49949;43.060;25.624;2023-04-25T10:27:27;13.30;99.90
63802;DHT22;49949;43.060;25.624;2023-04-25T10:30:05;13.20;99.90
63802;DHT22;49949;43.060;25.624;2023-04-25T10:32:35;13.20;99.90
63802;DHT22;49949;43.060;25.624;2023-04-25T10:35:25;13.20;99.90
63802;DHT22;49949;43.060;25.624;2023-04-25T10:37:58;13.30;99.90
63802;DHT22;49949;43.060;25.624;2023-04-25T10:40:24;13.30;99.90
63802;DHT22;49949;43.060;25.624;2023-04-25T10:42:53;13.20;99.90
63802;DHT22;49949;43.060;25.624;2023-04-25T10:45:22;13.20;99.90
63802;DHT22;49949;43.060;25.624;2023-04-25T10:47:48;13.10;99.90
63802;DHT22;49949;43.060;25.624;2023-04-25T10:50:15;13.10;99.90
63802;DHT22;49949;43.060;25.624;2023-04-25T10:52:43;13.10;99.90
63802;DHT22;49949;43.060;25.624;2023-04-25T10:55:10;13.10;99.90
63802;DHT22;49949;43.060;25.624;2023-04-25T10:57:44;13.30;99.90
63802;DHT22;49949;43.060;25.624;2023-04-25T11:00:17;13.50;99.90
63802;DHT22;49949;43.060;25.624;2023-04-25T11:02:57;13.60;99.90
63802;DHT22;49949;43.060;25.624;2023-04-25T11:05:29;13.60;99.90
63802;DHT22;49949;43.060;25.624;2023-04-25T11:07:57;14.00;99.90
63802;DHT22;49949;43.060;25.624;2023-04-25T11:10:27;14.30;99.90
63802;DHT22;49949;43.060;25.624;2023-04-25T11:12:53;14.60;99.90
63802;DHT22;49949;43.060;25.624;2023-04-25T11:15:19;14.70;99.90
63802;DHT22;49949;43.060;25.624;2023-04-25T11:17:45;14.70;99.90
63802;DHT22;49949;43.060;25.624;2023-04-25T11:20:12;14.70;99.90
63802;DHT22;49949;43.060;25.624;2023-04-25T11:22:39;14.80;99.90
63802;DHT22;49949;43.060;25.624;2023-04-25T11:25:10;14.90;99.90
63802;DHT22;49949;43.060;25.624;2023-04-25T11:27:52;15.00;99.90
63802;DHT22;49949;43.060;25.624;2023-04-25T11:30:19;15.10;99.90
63802;DHT22;49949;43.060;25.624;2023-04-25T11:32:45;15.30;99.90
63802;DHT22;49949;43.060;25.624;2023-04-25T11:35:11;15.40;99.90
63802;DHT22;49949;43.060;25.624;2023-04-25T11:37:39;15.70;99.90
63802;DHT22;49949;43.060;25.624;2023-04-25T11:40:06;16.10;99.90
63802;DHT22;49949;43.060;25.624;2023-04-25T11:42:33;16.50;99.90
63802;DHT22;49949;43.060;25.624;2023-04-25T11:44:59;16.60;99.90
63802;DHT22;49949;43.060;25.624;2023-04-25T11:47:32;16.70;99.90
63802;DHT22;49949;43.060;25.624;2023-04-25T11:50:05;16.90;99.90
63802;DHT22;49949;43.060;25.624;2023-04-25T11:52:51;17.10;99.90
63802;DHT22;49949;43.060;25.624;2023-04-25T11:55:21;17.20;99.90
63802;DHT22;49949;43.060;25.624;2023-04-25T11:57:49;17.30;99.90
63802;DHT22;49949;43.060;25.624;2023-04-25T12:00:17;17.40;99.90
63802;DHT22;49949;43.060;25.624;2023-04-25T12:02:50;17.50;99.90
63802;DHT22;49949;43.060;25.624;2023-04-25T12:05:16;17.50;99.90
63802;DHT22;49949;43.060;25.624;2023-04-25T12:07:42;17.70;99.90
63802;DHT22;49949;43.060;25.624;2023-04-25T12:10:12;17.80;99.90
63802;DHT22;49949;43.060;25.624;2023-04-25T12:12:43;17.70;99.90
63802;DHT22;49949;43.060;25.624;2023-04-25T12:15:13;17.60;99.90
63802;DHT22;49949;43.060;25.624;2023-04-25T12:17:49;17.50;99.90
63802;DHT22;49949;43.060;25.624;2023-04-25T12:20:18;17.50;99.90
63802;DHT22;49949;43.060;25.624;2023-04-25T12:22:46;17.70;99.90
63802;DHT22;49949;43.060;25.624;2023-04-25T12:28:12;17.90;99.90
63802;DHT22;49949;43.060;25.624;2023-04-25T12:31:03;17.90;99.90
63802;DHT22;49949;43.060;25.624;2023-04-25T12:33:36;18.00;99.90
63802;DHT22;49949;43.060;25.624;2023-04-25T12:36:03;18.00;99.90
63802;DHT22;49949;43.060;25.624;2023-04-25T12:38:37;18.10;99.90
63802;DHT22;49949;43.060;25.624;2023-04-25T12:41:03;18.00;99.90
63802;DHT22;49949;43.060;25.624;2023-04-25T12:43:28;18.00;99.90
63802;DHT22;49949;43.060;25.624;2023-04-25T12:45:55;18.00;99.90
63802;DHT22;49949;43.060;25.624;2023-04-25T12:48:22;17.90;99.90
63802;DHT22;49949;43.060;25.624;2023-04-25T12:50:49;17.80;99.90
63802;DHT22;49949;43.060;25.624;2023-04-25T12:53:24;17.70;99.90
63802;DHT22;49949;43.060;25.624;2023-04-25T12:55:50;17.60;99.90
63802;DHT22;49949;43.060;25.624;2023-04-25T12:58:18;17.50;99.90
63802;DHT22;49949;43.060;25.624;2023-04-25T13:00:44;17.30;99.90
63802;DHT22;49949;43.060;25.624;2023-04-25T13:03:10;17.10;99.90
63802;DHT22;49949;43.060;25.624;2023-04-25T13:05:37;16.90;99.90
63802;DHT22;49949;43.060;25.624;2023-04-25T13:08:03;16.80;99.90
63802;DHT22;49949;43.060;25.624;2023-04-25T13:10:29;16.60;99.90
63802;DHT22;49949;43.060;25.624;2023-04-25T13:12:55;16.50;99.90
63802;DHT22;49949;43.060;25.624;2023-04-25T13:15:22;16.30;99.90
63802;DHT22;49949;43.060;25.624;2023-04-25T13:17:48;16.10;99.90
63802;DHT22;49949;43.060;25.624;2023-04-25T13:20:14;16.00;99.90
63802;DHT22;49949;43.060;25.624;2023-04-25T13:22:41;15.80;99.90
63802;DHT22;49949;43.060;25.624;2023-04-25T13:25:07;15.70;99.90
63802;DHT22;49949;43.060;25.624;2023-04-25T13:27:34;15.60;99.90
63802;DHT22;49949;43.060;25.624;2023-04-25T13:30:02;15.50;99.90
63802;DHT22;49949;43.060;25.624;2023-04-25T13:32:36;15.40;99.90
63802;DHT22;49949;43.060;25.624;2023-04-25T13:35:08;15.20;99.90
63802;DHT22;49949;43.060;25.624;2023-04-25T13:37:34;15.00;99.90
63802;DHT22;49949;43.060;25.624;2023-04-25T13:40:07;14.90;99.90
63802;DHT22;49949;43.060;25.624;2023-04-25T13:42:35;14.80;99.90
63802;DHT22;49949;43.060;25.624;2023-04-25T13:45:01;14.80;99.90
63802;DHT22;49949;43.060;25.624;2023-04-25T13:47:28;14.80;99.90
63802;DHT22;49949;43.060;25.624;2023-04-25T13:49:54;14.80;99.90
63802;DHT22;49949;43.060;25.624;2023-04-25T13:52:20;14.80;99.90
63802;DHT22;49949;43.060;25.624;2023-04-25T13:54:46;14.80;99.90
63802;DHT22;49949;43.060;25.624;2023-04-25T13:57:12;14.90;99.90
63802;DHT22;49949;43.060;25.624;2023-04-25T13:59:38;15.00;99.90
63802;DHT22;49949;43.060;25.624;2023-04-25T14:02:04;15.30;99.90
63802;DHT22;49949;43.060;25.624;2023-04-25T14:04:30;15.50;99.90
63802;DHT22;49949;43.060;25.624;2023-04-25T14:06:56;15.60;99.90
63802;DHT22;49949;43.060;25.624;2023-04-25T14:09:22;15.60;99.90
63802;DHT22;49949;43.060;25.624;2023-04-25T14:11:51;15.60;99.90
63802;DHT22;49949;43.060;25.624;2023-04-25T14:14:18;15.50;99.90
63802;DHT22;49949;43.060;25.624;2023-04-25T14:16:44;15.50;99.90
63802;DHT22;49949;43.060;25.624;2023-04-25T14:19:10;15.40;99.90
63802;DHT22;49949;43.060;25.624;2023-04-25T14:21:36;15.40;99.90
63802;DHT22;49949;43.060;25.624;2023-04-25T14:24:01;15.40;99.90
63802;DHT22;49949;43.060;25.624;2023-04-25T14:26:27;15.50;99.90
63802;DHT22;49949;43.060;25.624;2023-04-25T14:28:53;15.50;99.90
63802;DHT22;49949;43.060;25.624;2023-04-25T14:31:18;15.50;99.90
63802;DHT22;49949;43.060;25.624;2023-04-25T14:33:45;15.50;99.90
63802;DHT22;49949;43.060;25.624;2023-04-25T14:36:11;15.60;99.90
63802;DHT22;49949;43.060;25.624;2023-04-25T14:38:36;15.60;99.90
63802;DHT22;49949;43.060;25.624;2023-04-25T14:41:02;15.70;99.90
63802;DHT22;49949;43.060;25.624;2023-04-25T14:43:28;15.50;99.90
63802;DHT22;49949;43.060;25.624;2023-04-25T14:45:54;15.20;99.90
63802;DHT22;49949;43.060;25.624;2023-04-25T14:48:20;14.90;99.90
63802;DHT22;49949;43.060;25.624;2023-04-25T14:50:46;14.60;99.90
63802;DHT22;49949;43.060;25.624;2023-04-25T14:53:12;14.40;99.90
63802;DHT22;49949;43.060;25.624;2023-04-25T14:55:38;14.10;99.90
63802;DHT22;49949;43.060;25.624;2023-04-25T14:58:04;13.90;99.90
63802;DHT22;49949;43.060;25.624;2023-04-25T15:00:30;13.80;99.90
63802;DHT22;49949;43.060;25.624;2023-04-25T15:02:59;13.60;99.90
63802;DHT22;49949;43.060;25.624;2023-04-25T15:05:24;13.40;99.90
63802;DHT22;49949;43.060;25.624;2023-04-25T15:07:50;13.20;99.90
63802;DHT22;49949;43.060;25.624;2023-04-25T15:10:17;13.10;99.90
63802;DHT22;49949;43.060;25.624;2023-04-25T15:12:43;13.00;99.90
63802;DHT22;49949;43.060;25.624;2023-04-25T15:15:10;13.00;99.90
63802;DHT22;49949;43.060;25.624;2023-04-25T15:17:43;12.90;99.90